Time;durP1;ratioP1;P1;durP2;ratioP2;P2;SDS_P1;SDS_P2;PMS_P1;PMS_P2;Temp;Humidity;BMP_temperature;BMP_pressure;BME280_temperature;BME280_humidity;BME280_pressure;Samples;Min_cycle;Max_cycle;Signal;HPM_P1;HPM_P2
2022/06/01 00:00:41;;;;;;;2.40;2.07;;;;;;;16.15;74.41;94613.69;2618483;47;20169;-81
2022/06/01 00:03:10;;;;;;;2.57;1.77;;;;;;;15.77;73.01;94574.00;2618594;54;20160;-81
2022/06/01 00:05:39;;;;;;;2.83;2.00;;;;;;;15.89;74.85;94614.13;2618871;47;20164;-80
2022/06/01 00:08:08;;;;;;;2.10;2.00;;;;;;;15.77;75.72;94627.53;2618667;46;20255;-82
2022/06/01 00:10:37;;;;;;;2.37;2.17;;;;;;;15.39;76.57;94613.47;2618839;47;20252;-81
2022/06/01 00:13:06;;;;;;;3.00;1.93;;;;;;;15.16;78.65;94626.72;2618606;54;20175;-81
2022/06/01 00:15:37;;;;;;;2.50;2.40;;;;;;;15.08;78.74;94618.03;2619001;47;20236;-81
2022/06/01 00:18:06;;;;;;;3.17;2.40;;;;;;;14.93;78.84;94609.25;2619085;47;20667;-81
2022/06/01 00:20:35;;;;;;;2.73;2.53;;;;;;;15.55;79.67;94620.16;2618681;47;20797;-81
2022/06/01 00:23:04;;;;;;;2.73;2.00;;;;;;;15.77;74.63;94636.81;2618642;47;20165;-82
2022/06/01 00:25:33;;;;;;;2.60;2.10;;;;;;;15.66;74.45;94617.41;2618731;54;20164;-81
2022/06/01 00:28:01;;;;;;;2.33;2.17;;;;;;;15.99;74.26;94636.34;2618341;54;20705;-81
2022/06/01 00:30:32;;;;;;;2.40;2.30;;;;;;;15.99;75.50;94614.22;2618745;46;20200;-81
2022/06/01 00:33:03;;;;;;;2.87;2.67;;;;;;;16.02;73.53;94634.97;2618606;47;20153;-81
2022/06/01 00:35:32;;;;;;;3.27;2.80;;;;;;;15.57;75.06;94619.47;2618611;47;20232;-81
2022/06/01 00:38:00;;;;;;;2.50;2.20;;;;;;;15.73;76.98;94625.34;2618501;46;20257;-82
2022/06/01 00:40:31;;;;;;;2.63;2.27;;;;;;;15.70;74.67;94572.50;2618370;54;20165;-81
2022/06/01 00:43:01;;;;;;;2.87;2.63;;;;;;;15.88;73.93;94583.41;2618787;47;20183;-81
2022/06/01 00:45:32;;;;;;;2.67;2.27;;;;;;;15.72;73.50;94568.94;2618287;54;20275;-81
2022/06/01 00:48:03;;;;;;;2.97;2.10;;;;;;;16.25;73.24;94593.81;2618052;54;20265;-81
2022/06/01 00:50:36;;;;;;;2.03;1.77;;;;;;;16.81;72.73;94552.81;2618713;47;20178;-81
2022/06/01 00:53:09;;;;;;;2.27;1.77;;;;;;;17.50;70.04;94550.34;2618489;54;20310;-81
2022/06/01 00:55:40;;;;;;;3.50;1.70;;;;;;;18.72;66.89;94631.00;2618613;47;20203;-82
2022/06/01 00:58:13;;;;;;;1.87;1.77;;;;;;;18.55;66.61;94597.94;2618296;47;20177;-81
2022/06/01 01:00:44;;;;;;;2.07;1.97;;;;;;;18.62;66.24;94580.06;2618334;47;20168;-81
2022/06/01 01:03:18;;;;;;;2.07;1.83;;;;;;;19.21;64.68;94610.88;2618451;47;20184;-81
2022/06/01 01:05:50;;;;;;;2.23;2.03;;;;;;;18.89;61.48;94632.41;2618522;54;20172;-81
2022/06/01 01:08:19;;;;;;;2.20;2.10;;;;;;;17.28;65.48;94518.78;2618354;54;20193;-81
2022/06/01 01:10:47;;;;;;;2.07;1.87;;;;;;;17.18;66.48;94607.44;2618558;51;20205;-80
2022/06/01 01:13:17;;;;;;;2.37;2.27;;;;;;;17.07;70.21;94625.97;2618458;54;20161;-80
2022/06/01 01:15:52;;;;;;;2.07;1.97;;;;;;;17.13;70.68;94618.13;2618430;47;20157;-80
2022/06/01 01:18:28;;;;;;;2.50;2.30;;;;;;;17.00;71.12;94599.44;2618447;47;20172;-80
2022/06/01 01:21:20;;;;;;;2.03;1.93;;;;;;;16.81;70.73;94601.44;2618524;47;20183;-80
2022/06/01 01:23:57;;;;;;;1.97;1.87;;;;;;;17.04;69.96;94588.03;2618491;47;20156;-80
2022/06/01 01:26:29;;;;;;;2.30;2.20;;;;;;;17.17;69.21;94603.16;2618647;47;20210;-81
2022/06/01 01:28:58;;;;;;;2.43;2.33;;;;;;;16.83;69.31;94598.59;2618471;47;20233;-80
2022/06/01 01:31:27;;;;;;;2.17;2.00;;;;;;;16.44;70.09;94551.09;2618435;47;20204;-80
2022/06/01 01:33:58;;;;;;;2.30;2.20;;;;;;;16.55;70.61;94584.75;2618439;47;20211;-80
2022/06/01 01:36:34;;;;;;;2.17;2.07;;;;;;;16.15;71.07;94585.13;2618905;46;20187;-80
2022/06/01 01:39:09;;;;;;;5.47;2.53;;;;;;;16.13;71.39;94570.81;2618379;47;20260;-80
2022/06/01 01:41:43;;;;;;;2.10;2.00;;;;;;;15.78;70.61;94518.34;2618613;54;20204;-82
2022/06/01 01:44:17;;;;;;;2.87;2.47;;;;;;;15.61;70.39;94553.84;2618402;54;20175;-81
2022/06/01 01:46:47;;;;;;;2.27;2.07;;;;;;;15.32;73.33;94584.13;2618254;47;20244;-80
2022/06/01 01:49:16;;;;;;;3.03;1.93;;;;;;;15.33;73.98;94582.00;2618577;47;20207;-81
2022/06/01 01:51:46;;;;;;;1.97;1.87;;;;;;;15.08;73.72;94524.63;2618205;54;20275;-81
2022/06/01 01:54:27;;;;;;;2.47;2.27;;;;;;;15.11;74.46;94545.34;2618294;47;20252;-82
2022/06/01 01:57:18;;;;;;;2.70;2.50;;;;;;;15.63;73.49;94568.84;2618382;47;20156;-81
2022/06/01 02:00:03;;;;;;;1.70;1.60;;;;;;;15.23;74.40;94489.16;2619019;39;20583;-82
2022/06/01 02:02:38;;;;;;;2.00;1.90;;;;;;;16.15;72.47;94596.53;2618438;54;20152;-82
2022/06/01 02:08:01;;;;;;;2.47;2.37;;;;;;;16.61;72.56;94592.69;2617935;47;20689;-82
2022/06/01 02:13:15;;;;;;;2.37;2.00;;;;;;;17.78;68.13;94598.47;2617862;47;20203;-82
2022/06/01 02:15:46;;;;;;;2.03;1.83;;;;;;;17.80;66.09;94517.53;2617701;50;20232;-82
2022/06/01 02:18:17;;;;;;;8.70;2.10;;;;;;;18.16;65.54;94531.25;2617664;47;20276;-81
2022/06/01 02:20:50;;;;;;;2.20;2.05;;;;;;;18.75;65.04;94580.78;2617181;54;20406;-82
2022/06/01 02:23:20;;;;;;;2.10;1.47;;;;;;;18.03;63.70;94525.50;2617502;47;20157;-82
2022/06/01 02:25:53;;;;;;;1.77;1.67;;;;;;;19.15;63.32;94597.25;2618080;39;20566;-82
2022/06/01 02:28:24;;;;;;;3.30;1.63;;;;;;;19.20;62.37;94572.13;2617635;54;20173;-82
2022/06/01 02:30:54;;;;;;;1.60;1.50;;;;;;;19.50;61.57;94609.41;2617485;47;20192;-82
2022/06/01 02:33:27;;;;;;;1.50;1.40;;;;;;;18.05;60.95;94610.72;2617770;54;20157;-82
2022/06/01 02:36:00;;;;;;;2.03;1.53;;;;;;;17.04;63.71;94591.63;2617754;54;20145;-82
2022/06/01 02:38:36;;;;;;;1.97;1.87;;;;;;;16.12;66.83;94612.25;2617574;54;20177;-82
2022/06/01 02:41:05;;;;;;;2.40;2.20;;;;;;;15.43;69.74;94580.00;2617395;54;20396;-83
2022/06/01 02:43:51;;;;;;;2.23;2.03;;;;;;;15.94;69.95;94557.78;2617841;47;20173;-82
2022/06/01 02:46:19;;;;;;;1.73;1.63;;;;;;;16.22;68.11;94531.63;2617654;54;20675;-82
2022/06/01 02:48:48;;;;;;;2.10;2.00;;;;;;;15.97;68.67;94619.22;2617553;54;20153;-82
2022/06/01 02:51:18;;;;;;;2.70;2.20;;;;;;;14.38;72.13;94487.25;2617526;54;20186;-82
2022/06/01 02:53:47;;;;;;;2.83;2.03;;;;;;;14.80;73.64;94562.03;2617274;54;20191;-82
2022/06/01 02:56:16;;;;;;;1.93;1.83;;;;;;;14.85;73.98;94537.16;2617555;46;20701;-81
2022/06/01 02:58:49;;;;;;;1.87;1.40;;;;;;;14.82;73.98;94525.00;2618470;31;20654;-82
2022/06/01 03:01:17;;;;;;;2.77;2.50;;;;;;;15.69;73.41;94607.47;2617642;54;20172;-82
2022/06/01 03:03:47;;;;;;;1.90;1.80;;;;;;;15.90;72.39;94572.72;2617509;54;20240;-82
2022/06/01 03:06:15;;;;;;;1.80;1.73;;;;;;;16.41;71.27;94546.75;2617466;54;20164;-82
2022/06/01 03:08:45;;;;;;;3.67;1.33;;;;;;;17.79;67.84;94611.34;2617336;54;20196;-82
2022/06/01 03:11:14;;;;;;;1.20;1.20;;;;;;;18.26;66.04;94620.13;2617494;54;20176;-82
2022/06/01 03:13:43;;;;;;;1.80;1.70;;;;;;;18.73;64.07;94621.66;2617359;47;20256;-82
2022/06/01 03:16:14;;;;;;;1.93;1.83;;;;;;;18.44;62.74;94560.66;2617448;47;20244;-82
2022/06/01 03:18:42;;;;;;;1.47;1.37;;;;;;;19.28;62.14;94632.41;2617460;54;20244;-82
2022/06/01 03:21:11;;;;;;;5.40;1.90;;;;;;;18.23;60.70;94461.00;2617471;54;20157;-83
2022/06/01 03:23:42;;;;;;;5.10;2.00;;;;;;;18.16;61.27;94448.84;2617411;47;20175;-82
2022/06/01 03:26:10;;;;;;;1.60;1.50;;;;;;;19.42;61.40;94638.84;2617320;51;20190;-81
2022/06/01 03:28:39;;;;;;;2.53;2.30;;;;;;;19.13;61.41;94641.00;2617246;54;20232;-81
2022/06/01 03:31:08;;;;;;;5.60;1.90;;;;;;;18.61;61.20;94538.47;2617763;39;20695;-81
2022/06/01 03:33:39;;;;;;;2.00;1.60;;;;;;;18.72;61.23;94553.53;2617379;54;20152;-82
2022/06/01 03:36:09;;;;;;;2.63;1.70;;;;;;;19.48;60.96;94638.13;2618439;31;20678;-81
2022/06/01 03:38:38;;;;;;;5.28;2.85;;;;;;;19.62;60.97;94641.00;2617214;54;20518;-80
2022/06/01 03:41:07;;;;;;;4.57;2.67;;;;;;;19.58;60.48;94626.63;2616810;47;20291;-81
2022/06/01 03:45:55;;;;;;;3.95;3.25;;;;;;;19.44;60.66;94604.38;2617467;47;20726;-82
2022/06/01 03:46:23;;;;;;;3.17;2.95;;;;;;;18.93;60.98;94540.59;2616403;47;20183;-81
2022/06/01 03:48:54;;;;;;;3.93;3.37;;;;;;;19.32;59.81;94574.97;2616325;54;20408;-83
2022/06/01 03:51:29;;;;;;;3.85;3.05;;;;;;;19.43;59.85;94582.09;2616602;47;20180;-80
2022/06/01 03:53:57;;;;;;;3.60;3.30;;;;;;;18.94;60.26;94530.56;2617191;39;20738;-80
2022/06/01 03:56:27;;;;;;;2.65;2.47;;;;;;;18.49;60.25;94463.88;2617624;39;20550;-83
2022/06/01 03:58:56;;;;;;;5.77;4.00;;;;;;;19.10;63.40;94653.97;2617028;54;20212;-83
2022/06/01 04:01:26;;;;;;;6.63;3.63;;;;;;;17.99;63.57;94496.81;2616868;47;20171;-80
2022/06/01 04:04:04;;;;;;;5.82;3.60;;;;;;;17.69;61.49;94385.78;2616939;47;20774;-81
2022/06/01 04:06:33;;;;;;;8.37;3.47;;;;;;;19.31;62.93;94656.81;2617005;54;20654;-83
2022/06/01 04:09:03;;;;;;;4.77;4.23;;;;;;;17.51;65.38;94508.13;2617058;54;20191;-83
2022/06/01 04:11:32;;;;;;;5.38;4.82;;;;;;;17.44;69.81;94644.09;2617382;54;20405;-82
2022/06/01 04:14:01;;;;;;;3.83;3.53;;;;;;;16.62;73.10;94642.75;2616522;54;20161;-83
2022/06/01 04:16:32;;;;;;;4.83;4.00;;;;;;;15.84;76.76;94654.78;2617174;47;20675;-83
2022/06/01 04:19:08;;;;;;;4.83;4.40;;;;;;;15.18;80.14;94616.03;2617339;54;20152;-81
2022/06/01 04:21:40;;;;;;;4.20;3.90;;;;;;;13.83;81.41;94435.13;2617377;54;20187;-81
2022/06/01 04:24:16;;;;;;;6.43;4.50;;;;;;;14.98;82.46;94607.19;2616965;54;20145;-81
2022/06/01 04:26:45;;;;;;;5.70;4.57;;;;;;;15.04;82.07;94589.44;2617115;47;20232;-81
2022/06/01 04:29:15;;;;;;;6.80;4.77;;;;;;;13.67;81.86;94386.47;2617350;54;20231;-81
2022/06/01 04:31:47;;;;;;;5.80;5.20;;;;;;;15.05;81.03;94536.69;2617397;54;20185;-82
2022/06/01 04:34:18;;;;;;;6.53;5.60;;;;;;;16.04;80.97;94625.72;2617188;47;20263;-82
2022/06/01 04:36:47;;;;;;;5.73;5.20;;;;;;;16.32;78.74;94609.59;2617004;54;20161;-82
2022/06/01 04:39:20;;;;;;;6.60;5.23;;;;;;;15.35;78.98;94542.78;2617038;47;20192;-83
2022/06/01 04:41:53;;;;;;;6.40;5.80;;;;;;;15.59;77.98;94525.97;2617122;54;20149;-81
2022/06/01 04:44:30;;;;;;;6.83;5.17;;;;;;;15.78;79.14;94572.59;2616981;47;20153;-81
2022/06/01 04:47:00;;;;;;;4.83;4.50;;;;;;;16.45;78.60;94664.00;2617764;54;20160;-81
2022/06/01 04:49:35;;;;;;;5.53;4.90;;;;;;;16.91;77.16;94667.34;2618022;54;20160;-82
2022/06/01 04:52:22;;;;;;;5.70;5.10;;;;;;;16.30;76.22;94589.56;2618302;54;20388;-86
2022/06/01 04:54:51;;;;;;;12.63;9.70;;;;;;;14.51;77.59;94367.09;2617905;46;20161;-82
2022/06/01 04:57:19;;;;;;;6.50;5.83;;;;;;;16.36;77.54;94666.06;2617994;54;20183;-81
2022/06/01 05:00:33;;;;;;;;;;;;;;;;;;;;;
2022/06/01 06:15:31;;;;;;;5.03;4.57;;;;;;;21.22;60.40;94668.25;2620180;46;20132;-79
2022/06/01 06:18:00;;;;;;;4.95;4.55;;;;;;;20.87;60.54;94582.13;2616574;54;20258;-82
2022/06/01 06:20:38;;;;;;;;;;;;;;;;;;;;;
2022/06/01 06:23:09;;;;;;;4.55;4.15;;;;;;;21.20;60.25;94645.22;2621845;54;20149;-78
2022/06/01 06:25:37;;;;;;;4.18;3.88;;;;;;;21.57;59.60;94646.31;2621503;54;20227;-80
2022/06/01 06:28:06;;;;;;;4.57;4.22;;;;;;;21.70;60.17;94635.38;2620947;46;20149;-79
2022/06/01 06:30:39;;;;;;;5.30;3.97;;;;;;;22.09;58.32;94637.84;2621755;54;20240;-78
2022/06/01 06:33:09;;;;;;;7.95;4.50;;;;;;;22.30;58.01;94633.97;2621676;46;20137;-78
2022/06/01 07:04:53;;;;;;;3.88;3.08;;;;;;;23.50;51.88;94611.25;2620015;38;20545;-81
2022/06/01 07:07:37;;;;;;;3.50;3.20;;;;;;;23.37;51.22;94518.94;2620103;54;20200;-85
2022/06/01 07:11:08;;;;;;;5.90;2.80;;;;;;;24.43;50.91;94664.47;2616481;54;20151;-84
2022/06/01 07:13:37;;;;;;;3.88;3.45;;;;;;;23.07;49.89;94505.09;2616034;54;20256;-80
2022/06/01 07:16:09;;;;;;;6.88;2.95;;;;;;;23.29;52.61;94524.91;2616740;54;20164;-80
2022/06/01 14:15:54;;;;;;;1.75;1.30;;;;;;;28.54;27.68;94284.94;2619164;54;20241;-84
2022/06/01 14:32:08;;;;;;;0.80;0.80;;;;;;;27.72;27.02;94233.75;2615244;47;20186;-84
